createdAt,value
2022-08-09T00:00:04.602Z,163.268
2022-08-09T00:05:03.794Z,161.586
2022-08-09T00:10:01.355Z,233.169
2022-08-09T00:15:06.476Z,278.443
2022-08-09T00:20:07.785Z,331.103
2022-08-09T00:25:01.352Z,675.479
2022-08-09T00:30:23.744Z,222.267
2022-08-09T00:35:01.347Z,180.121
2022-08-09T00:40:09.926Z,185.386
2022-08-09T00:45:03.508Z,191.85500000000002
2022-08-09T00:50:01.484Z,299.1
2022-08-09T00:55:01.576Z,675.4110000000001
2022-08-09T01:00:02.913Z,308.146
2022-08-09T01:05:02.593Z,1152.358
2022-08-09T01:10:01.611Z,7697.715
2022-08-09T01:15:01.390Z,7650.9580000000005
2022-08-09T01:20:04.247Z,7646.9980000000005
2022-08-09T01:25:01.480Z,8058.543000000001
2022-08-09T01:30:01.423Z,7672.534000000001
2022-08-09T01:35:06.781Z,7629.3910000000005
2022-08-09T01:40:01.659Z,7468.796
2022-08-09T01:45:01.427Z,6714.875
2022-08-09T01:50:07.854Z,6021.843
2022-08-09T01:55:01.458Z,5420.697
2022-08-09T02:00:08.881Z,4856.496
2022-08-09T02:05:04.906Z,4403.653
2022-08-09T02:10:03.751Z,3919.341
2022-08-09T02:15:01.434Z,3691.78
2022-08-09T02:20:02.197Z,1526.657
2022-08-09T02:25:01.553Z,302.081
2022-08-09T02:30:01.819Z,299.249
2022-08-09T02:35:01.464Z,302.39300000000003
2022-08-09T02:40:02.146Z,328.966
2022-08-09T02:45:01.527Z,595.797
2022-08-09T02:50:04.703Z,172.351
2022-08-09T02:55:03.115Z,160.308
2022-08-09T03:00:21.722Z,175.724
2022-08-09T03:05:01.505Z,186.091
2022-08-09T03:10:01.509Z,309.653
2022-08-09T03:15:01.483Z,299.922
2022-08-09T03:20:11.390Z,294.371
2022-08-09T03:25:06.090Z,248.09300000000002
2022-08-09T03:30:01.662Z,603.6
2022-08-09T03:35:01.492Z,223.124
2022-08-09T03:40:01.555Z,161.30100000000002
2022-08-09T03:45:01.638Z,164.213
2022-08-09T03:50:01.670Z,192.637
2022-08-09T03:55:01.523Z,284.657
2022-08-09T04:00:01.540Z,276.684
2022-08-09T04:05:05.752Z,272.84000000000003
2022-08-09T04:10:01.562Z,189.375
2022-08-09T04:15:11.747Z,188.84300000000002
2022-08-09T04:20:03.955Z,187.109
2022-08-09T04:25:03.003Z,186.748
2022-08-09T04:30:02.115Z,187.591
2022-08-09T04:35:01.689Z,236.458
2022-08-09T04:40:02.121Z,404.214
2022-08-09T04:45:01.712Z,662.453
2022-08-09T04:50:07.843Z,627.61
2022-08-09T04:55:01.813Z,290.835
2022-08-09T05:00:01.612Z,291.035
2022-08-09T05:05:04.240Z,299.65500000000003
2022-08-09T05:10:02.371Z,252.36700000000002
2022-08-09T05:15:03.419Z,314.779
2022-08-09T05:20:01.643Z,303.309
2022-08-09T05:25:02.658Z,351.18600000000004
2022-08-09T05:30:02.162Z,736.4
2022-08-09T05:35:01.761Z,526.849
2022-08-09T05:40:01.847Z,214.786
2022-08-09T05:45:01.617Z,201.061
2022-08-09T05:50:24.637Z,207.07
2022-08-09T05:55:02.861Z,203.391
2022-08-09T06:00:01.811Z,201.528
2022-08-09T06:05:01.675Z,270.214
2022-08-09T06:10:02.933Z,615.724
2022-08-09T06:15:03.301Z,481.767
2022-08-09T06:20:07.821Z,307.784
2022-08-09T06:25:01.738Z,224.942
2022-08-09T06:30:04.803Z,225.227
2022-08-09T06:35:01.677Z,229.501
2022-08-09T06:40:04.538Z,521.956
2022-08-09T06:45:04.735Z,395.06600000000003
2022-08-09T06:50:12.445Z,301.689
2022-08-09T06:55:01.797Z,320.392
2022-08-09T07:00:53.569Z,324.204
2022-08-09T07:05:01.737Z,298.389
2022-08-09T07:10:12.810Z,2101.471
2022-08-09T07:15:03.308Z,3352.42
2022-08-09T07:20:04.357Z,2076.902
2022-08-09T07:25:01.742Z,183.514
2022-08-09T07:30:01.730Z,179.22
2022-08-09T07:35:02.640Z,257.936
2022-08-09T07:40:01.860Z,277.399
2022-08-09T07:45:02.670Z,272.099
2022-08-09T07:50:09.390Z,228.6
2022-08-09T07:55:01.834Z,559.45
2022-08-09T08:00:03.333Z,162.053
2022-08-09T08:05:01.726Z,163.525
2022-08-09T08:10:08.457Z,167.038
2022-08-09T08:15:01.820Z,188.893
2022-08-09T08:20:01.782Z,305.932
2022-08-09T08:25:01.776Z,531.2760000000001
2022-08-09T08:30:03.782Z,1357.881
2022-08-09T08:35:01.941Z,820.367
2022-08-09T08:40:01.813Z,321.091
2022-08-09T08:45:11.638Z,346.425
2022-08-09T08:50:04.442Z,2345.54
2022-08-09T08:55:02.033Z,3214.919
2022-08-09T09:00:03.055Z,1239.946
2022-08-09T09:05:02.917Z,569.747
2022-08-09T09:10:04.874Z,428.159
2022-08-09T09:15:01.873Z,414.64300000000003
2022-08-09T09:20:07.444Z,321.63
2022-08-09T09:26:00.613Z,294.647
2022-08-09T09:30:14.515Z,316.312
2022-08-09T09:35:01.926Z,290.244
2022-08-09T09:40:02.680Z,273.757
2022-08-09T09:45:03.081Z,320.678
2022-08-09T09:50:07.641Z,394.442
2022-08-09T09:55:02.318Z,388.933
2022-08-09T10:00:01.829Z,379.778
2022-08-09T10:05:02.053Z,280.493
2022-08-09T10:10:03.017Z,279.78000000000003
2022-08-09T10:15:01.954Z,397.122
2022-08-09T10:20:04.292Z,1163.67
2022-08-09T10:25:03.310Z,479.81100000000004
2022-08-09T10:30:29.864Z,391.771
2022-08-09T10:35:01.876Z,487.877
2022-08-09T10:40:02.266Z,858.893
2022-08-09T10:45:01.982Z,890.163
2022-08-09T10:50:09.835Z,1146.6000000000001
2022-08-09T10:55:01.961Z,1143.507
2022-08-09T11:00:02.111Z,877.364
2022-08-09T11:05:01.964Z,907.309
2022-08-09T11:10:02.068Z,3094.337
2022-08-09T11:15:01.908Z,3902.231
2022-08-09T11:20:10.011Z,1072.904
2022-08-09T11:25:01.976Z,2542.433
2022-08-09T11:30:05.345Z,1571.134
2022-08-09T11:35:01.928Z,1261.932
2022-08-09T11:40:02.748Z,1194.401
2022-08-09T11:45:01.930Z,1243.934
2022-08-09T11:50:54.503Z,1165.018
2022-08-09T11:55:01.998Z,1061.289
2022-08-09T12:00:01.967Z,514.723
2022-08-09T12:05:01.976Z,497.302
2022-08-09T12:15:04.499Z,461.879
2022-08-09T12:20:04.202Z,351.313
2022-08-09T12:25:01.979Z,435.264
2022-08-09T12:30:35.956Z,1771.1480000000001
2022-08-09T12:35:02.871Z,1721.517
2022-08-09T12:40:02.257Z,1370.413
2022-08-09T12:45:02.087Z,762.359
2022-08-09T12:50:05.023Z,564.342
2022-08-09T12:56:13.478Z,466.468
2022-08-09T13:00:07.400Z,540.149
2022-08-09T13:05:02.445Z,886.028
2022-08-09T13:10:02.011Z,419.057
2022-08-09T13:15:02.013Z,365.994
2022-08-09T13:20:12.852Z,430.396
2022-08-09T13:25:03.440Z,385.063
2022-08-09T13:30:03.440Z,725.537
2022-08-09T13:35:02.035Z,808.73
2022-08-09T13:41:22.132Z,1728.435
2022-08-09T13:45:02.185Z,2085.575
2022-08-09T13:50:02.168Z,694.65
2022-08-09T13:55:04.920Z,722.004
2022-08-09T14:00:02.100Z,585.274
2022-08-09T14:05:02.257Z,329.976
2022-08-09T14:10:03.155Z,499.979
2022-08-09T14:15:02.048Z,460.548
2022-08-09T14:20:04.539Z,642.265
2022-08-09T14:25:02.276Z,529.941
2022-08-09T14:30:18.828Z,451.24600000000004
2022-08-09T14:35:02.080Z,403.169
2022-08-09T14:40:02.213Z,563.113
2022-08-09T14:45:14.942Z,421.317
2022-08-09T14:50:08.466Z,466.673
2022-08-09T14:55:02.100Z,907.6700000000001
2022-08-09T15:00:02.169Z,552.269
2022-08-09T15:05:02.096Z,483.27
2022-08-09T15:10:04.412Z,532.433
2022-08-09T15:15:02.123Z,400.44800000000004
2022-08-09T15:20:02.863Z,399.892
2022-08-09T15:25:03.681Z,1177.815
2022-08-09T15:30:48.211Z,771.985
2022-08-09T15:35:02.138Z,484.49
2022-08-09T15:40:02.319Z,886.902
2022-08-09T15:45:02.134Z,2765.385
2022-08-09T15:50:05.456Z,2698.877
2022-08-09T15:55:02.161Z,2683.04
2022-08-09T16:00:07.230Z,1305.363
2022-08-09T16:05:02.344Z,609.446
2022-08-09T16:10:04.408Z,430.243
2022-08-09T16:15:02.187Z,344.819
2022-08-09T16:20:08.940Z,385.87600000000003
2022-08-09T16:25:02.179Z,885.89
2022-08-09T16:30:02.539Z,676.802
2022-08-09T16:35:02.413Z,572.71
2022-08-09T16:40:05.172Z,407.48
2022-08-09T16:45:02.235Z,405.753
2022-08-09T16:50:30.718Z,486.414
2022-08-09T16:55:02.216Z,760.533
2022-08-09T17:00:02.336Z,476.851
2022-08-09T17:05:02.204Z,483.458
2022-08-09T17:10:03.970Z,520.753
2022-08-09T17:15:02.203Z,603.443
2022-08-09T17:20:28.030Z,496.89300000000003
2022-08-09T17:25:02.905Z,439.16700000000003
2022-08-09T17:30:04.599Z,476.208
2022-08-09T17:35:11.115Z,419.06100000000004
2022-08-09T17:40:02.492Z,503.01800000000003
2022-08-09T17:45:02.413Z,416.551
2022-08-09T17:50:11.145Z,483.196
2022-08-09T17:55:02.249Z,596.349
2022-08-09T18:00:05.236Z,852.214
2022-08-09T18:05:02.403Z,1364.188
2022-08-09T18:10:03.934Z,914.128
2022-08-09T18:15:02.268Z,706.546
2022-08-09T18:20:57.505Z,803.701
2022-08-09T18:25:02.413Z,428.675
2022-08-09T18:30:36.891Z,497.432
2022-08-09T18:35:02.301Z,873.945
2022-08-09T18:40:02.362Z,3240.659
2022-08-09T18:45:02.430Z,3804.849
2022-08-09T18:50:05.740Z,1221.421
2022-08-09T18:55:02.356Z,485.753
2022-08-09T19:00:04.033Z,400.365
2022-08-09T19:05:04.677Z,409.29
2022-08-09T19:10:13.654Z,606.614
2022-08-09T19:15:02.613Z,751.918
2022-08-09T19:20:07.676Z,606.662
2022-08-09T19:25:07.324Z,508.538
2022-08-09T19:30:21.693Z,503.474
2022-08-09T19:35:02.567Z,505.91700000000003
2022-08-09T19:40:04.575Z,553.7860000000001
2022-08-09T19:45:02.345Z,712.914
2022-08-09T19:50:05.009Z,400.642
2022-08-09T19:55:02.450Z,404.496
2022-08-09T20:00:06.557Z,516.006
2022-08-09T20:05:02.527Z,537.744
2022-08-09T20:10:06.695Z,633.402
2022-08-09T20:15:04.589Z,504.813
2022-08-09T20:20:04.676Z,362.847
2022-08-09T20:25:02.409Z,403.499
2022-08-09T20:30:02.510Z,333.63100000000003
2022-08-09T20:35:02.518Z,427.467
2022-08-09T20:40:14.482Z,333.75600000000003
2022-08-09T20:45:28.376Z,407.476
2022-08-09T20:50:07.567Z,557.405
2022-08-09T20:55:03.058Z,481.007
2022-08-09T21:00:19.724Z,513.178
2022-08-09T21:05:50.665Z,639.01
2022-08-09T21:10:02.408Z,674.7090000000001
2022-08-09T21:15:02.432Z,274.933
2022-08-09T21:20:02.632Z,242.131
2022-08-09T21:25:02.465Z,238.38400000000001
2022-08-09T21:30:02.608Z,360.675
2022-08-09T21:35:02.437Z,621.1270000000001
2022-08-09T21:40:02.537Z,766.438
2022-08-09T21:45:02.413Z,271.157
2022-08-09T21:50:04.720Z,214.074
2022-08-09T21:55:03.599Z,214.15200000000002
2022-08-09T22:00:02.482Z,505.36400000000003
2022-08-09T22:05:04.519Z,448.826
2022-08-09T22:10:02.482Z,295.458
2022-08-09T22:15:02.533Z,356.585
2022-08-09T22:20:07.685Z,349.37600000000003
2022-08-09T22:26:05.077Z,648.308
2022-08-09T22:30:02.491Z,412.254
2022-08-09T22:35:06.490Z,245.728
2022-08-09T22:40:02.586Z,247.193
2022-08-09T22:48:05.684Z,235.67000000000002
2022-08-09T22:50:02.806Z,213.97
2022-08-09T22:55:02.516Z,302.871
2022-08-09T23:00:02.509Z,356.314
2022-08-09T23:05:02.515Z,349.373
2022-08-09T23:10:02.688Z,296.748
2022-08-09T23:15:02.528Z,237.00900000000001
2022-08-09T23:20:07.594Z,236.15
2022-08-09T23:25:02.557Z,220.351
2022-08-09T23:30:02.565Z,213.084
2022-08-09T23:35:02.751Z,213.035
2022-08-09T23:40:02.546Z,331.315
2022-08-09T23:45:02.538Z,328.845
2022-08-09T23:50:08.294Z,324.461
2022-08-09T23:55:02.597Z,256.01300000000003
